LiveATC.Net - Listen to live air traffic control over the Internet!


ICAO: LZIB  IATA: BTS   Airport: M. R. Stefanik Airport
City: Bratislava
Country: Slovakia   Continent: Europe
LZIB METAR Weather: LZIB 222330Z VRB03KT 9999 FEW010 SCT015 BKN021 13/11 Q1013 WS ALL RWY
LZIB Flight Activity (FlightAware)
LZIB Webcam:  (Airport Webcams) 

LZIB Del/Twr/App
Feed Status: UP   Listeners: 0
Listen in your browser - HTML5 player (in browser, HTML5)
Click here to listen with your own player (launches your MP3 player)
LZIB Del/Twr/App Audio Archives
FacilityFrequency
Stefanik Approach120.900
Stefanik Clearance Delivery118.975
Stefanik Tower118.300
Stefanik Tower (backup)118.700
(c) LPS

NOTICE

Unauthorized use prohibited. See LiveATC.net Terms of Service


Find LiveATC Audio Streams


Airport/ARTCC Code

Frequency Search
(e.g., 124.400, 128.75)
Site-wide search
 


Browse LiveATC Feeds
Top 50 LiveATC Feeds
LiveATC Feed Map
Bad Weather Areas

LiveATC FAQ
Offer LiveATC feed
Contact LiveATC.net
Press Inquiries

LiveATC on iPhone
LiveATC on Android

Windows Phone
Windows 8/10

LiveATC Mobile
(Mobile browser)

ATC Audio Archives
Interesting Recordings

LiveATC Forums


Home Page
About LiveATC.net
Make a Donation
Terms of Use
Privacy Policy

Canadian Air Freqs

AIRMETs/SIGMETs

FAA Airport Status
Nat'l Airspace Status
Arrival Demand Charts


Server Software By:
Icecast.org
Liquidsoap